Bookmark and Share
Track history (hours):
 

Ginga

Last reported at 2014-Apr-17 04:33 UTC. Time now 2014-Apr-18 03:03 UTC.
Position N 34°37' E 135°05'.

Length 28 m; draft 1.6 m.

Type: Other ship. MMSI: 431301704.

NotesDate/timePositionNaut miles runAvg speedWind from/ knotsBaromVisibWave heightAir tempDewpointWater temp
2014-Apr-17 04:33N 34°37' E 135°05'2 1.6
2014-Apr-17 03:33N 34°36' E 135°04'5 5.4
2014-Apr-17 02:33N 34°39' E 135°09'9 0.2
2014-Apr-15 03:32N 34°36' E 134°58'9 9.7
2014-Apr-15 02:34N 34°39' E 135°09'0 0.0
2014-Apr-13 07:34N 34°39' E 135°10'1210.8
2014-Apr-13 06:27N 34°36' E 134°56'4 4.4
2014-Apr-13 05:33N 34°36' E 135°01'0 0.0
2014-Apr-13 01:30N 34°36' E 135°01'4 3.9
2014-Apr-13 00:33N 34°35' E 135°05'5 5.4
2014-Apr-12 23:33N 34°39' E 135°09'0 0.0
2014-Apr-11 07:12N 34°39' E 135°09'813.1
2014-Apr-11 06:33N 34°31' E 135°07'12 9.4
2014-Apr-11 05:16N 34°21' E 134°59'1116.0
2014-Apr-11 04:33N 34°28' E 135°10'1211.5
2014-Apr-11 03:33N 34°33' E 135°22'3 3.5
2014-Apr-11 02:33N 34°35' E 135°19'9 1.1
2014-Apr-10 18:31N 34°39' E 135°09'9 8.7
2014-Apr-10 17:31N 34°37' E 134°59'7 6.8
2014-Apr-10 16:33N 34°35' E 135°06'5 5.1
2014-Apr-10 15:33N 34°39' E 135°09'0 0.0
2014-Apr-10 01:04N 34°39' E 135°09'612.0
2014-Apr-10 00:33N 34°36' E 135°16'6 5.6
2014-Apr-09 23:33N 34°33' E 135°22'7 6.8
2014-Apr-09 22:33N 34°31' E 135°14'1413.7
2014-Apr-09 21:32N 34°21' E 135°03'7 6.1
2014-Apr-09 20:20N 34°14' E 134°59'11 0.7
2014-Apr-09 04:34N 34°25' E 135°02'1514.7
2014-Apr-09 03:33N 34°33' E 135°18'5 5.1
2014-Apr-09 02:33N 34°33' E 135°24'1111.0
2014-Apr-09 01:33N 34°37' E 135°11'2 2.4
2014-Apr-09 00:33N 34°39' E 135°09'5 0.2
2014-Apr-08 03:33N 34°37' E 135°15'8 7.6
2014-Apr-08 02:29N 34°33' E 135°24'7 6.9
2014-Apr-08 01:33N 34°32' E 135°16'1313.4
2014-Apr-08 00:33N 34°23' E 135°04'1310.9
2014-Apr-07 23:23N 34°10' E 134°59'10 9.4
2014-Apr-07 22:20N 34°20' E 134°60'1316.6
2014-Apr-07 21:33N 34°32' E 135°07'8 7.7
2014-Apr-07 20:33N 34°39' E 135°09'  

Dump ship's entire track history

sailing weather and tide predictions

Ginga — JJ4054 — position and weather